^^
Saratoga-Weather Station Historical Data
Daily Summary for September 6, 2020 Units:  English    Metric   Both
Daily Weekly Monthly Yearly Custom
  High: Low: Average:
Temperature: 59.5 °F 49.5 °F 52.9 °F
Dew Point: 52 °F 47.3 °F 49.5 °F
Humidity: 95% 66% 88%
Wind Speed: 12.1mph 0mph 2.6mph
Wind Gust: 19mph - -
Wind- - WSW
Pressure: 29.6 in 29.5 in -
Precipitation: 0.14 in    
Historical Graphs
 
 
Tabular Data for September 6, 2020
Time Temperature Dew Point Pressure Wind Wind Speed Wind Gust Humidity Rainfall Rate (Hourly) solar
00:04 49.6 °F 48 °F 29.5 in Calm     94% 0 in 0 W/m2
00:09 49.6 °F 48 °F 29.5 in SE 0.9 mph 2 mph 94% 0 in 0 W/m2
00:14 49.5 °F 47.8 °F 29.5 in Calm     94% 0 in 0 W/m2
00:19 49.5 °F 47.8 °F 29.5 in Calm     94% 0 in 0 W/m2
00:24 49.5 °F 48 °F 29.5 in SE 0.9 mph 1 mph 95% 0 in 0 W/m2
00:29 49.6 °F 48.2 °F 29.5 in Calm   1 mph 95% 0 in 0 W/m2
00:34 49.8 °F 48.4 °F 29.5 in ESE 0.9 mph 1 mph 95% 0 in 0 W/m2
00:39 50 °F 48.6 °F 29.5 in Calm     95% 0 in 0 W/m2
00:44 50.4 °F 48.9 °F 29.5 in NE 0.9 mph 2 mph 95% 0 in 0 W/m2
00:49 50.5 °F 49.1 °F 29.5 in East 0.9 mph 3 mph 95% 0 in 0 W/m2
00:54 50.7 °F 49.3 °F 29.5 in Calm   1 mph 95% 0 in 0 W/m2
00:59 51.1 °F 49.6 °F 29.5 in Calm   3 mph 95% 0 in 0 W/m2
01:05 51.1 °F 49.6 °F 29.5 in East 0.9 mph 2 mph 95% 0 in 0 W/m2
01:10 51.3 °F 49.6 °F 29.5 in ENE 0.9 mph 3 mph 94% 0 in 0 W/m2
01:15 51.4 °F 49.8 °F 29.5 in WNW 0.9 mph 4 mph 94% 0 in 0 W/m2
01:20 51.4 °F 49.8 °F 29.5 in NNW 2 mph 3 mph 94% 0 in 0 W/m2
01:25 51.6 °F 50 °F 29.5 in NW 0.9 mph 6 mph 94% 0 in 0 W/m2
01:30 51.8 °F 49.8 °F 29.5 in Calm   2 mph 93% 0 in 0 W/m2
01:35 51.8 °F 49.8 °F 29.5 in Calm   6 mph 93% 0.01 in 0 W/m2
01:40 51.8 °F 49.8 °F 29.5 in Calm   4 mph 93% 0.01 in 0 W/m2
01:45 51.8 °F 49.8 °F 29.5 in WNW 0.9 mph 6 mph 93% 0.01 in 0 W/m2
01:50 51.8 °F 49.8 °F 29.5 in WSW 0.9 mph 3 mph 93% 0.02 in 0 W/m2
01:55 51.8 °F 49.8 °F 29.5 in NNW 2 mph 5 mph 93% 0.02 in 0 W/m2
02:00 51.6 °F 49.6 °F 29.5 in WNW 2 mph 2 mph 93% 0.02 in 0 W/m2
02:05 51.6 °F 49.6 °F 29.5 in North 0.9 mph 4 mph 93% 0.02 in 0 W/m2
02:10 51.6 °F 49.6 °F 29.5 in Calm   9 mph 93% 0.02 in 0 W/m2
02:15 51.6 °F 49.6 °F 29.5 in Calm   1 mph 93% 0.02 in 0 W/m2
02:20 51.6 °F 49.6 °F 29.5 in North 4 mph 6 mph 93% 0.02 in 0 W/m2
02:25 51.6 °F 49.6 °F 29.5 in Calm   3 mph 93% 0.02 in 0 W/m2
02:30 51.6 °F 49.6 °F 29.5 in SSE 0.9 mph 2 mph 93% 0.03 in 0 W/m2
02:35 51.4 °F 49.5 °F 29.5 in WNW 4 mph 4 mph 93% 0.02 in 0 W/m2
02:40 51.4 °F 49.5 °F 29.5 in NW 2.9 mph 3 mph 93% 0.02 in 0 W/m2
02:45 51.6 °F 49.6 °F 29.5 in West 0.9 mph 4 mph 93% 0.02 in 0 W/m2
02:50 51.4 °F 49.5 °F 29.5 in West 2 mph 7 mph 93% 0.02 in 0 W/m2
02:56 51.4 °F 49.5 °F 29.5 in WNW 0.9 mph 2 mph 93% 0.02 in 0 W/m2
03:01 51.4 °F 49.5 °F 29.5 in WNW 2 mph 4 mph 93% 0.02 in 0 W/m2
03:06 51.4 °F 49.5 °F 29.5 in WNW 2.9 mph 4 mph 93% 0.02 in 0 W/m2
03:11 51.4 °F 49.5 °F 29.5 in NNW 0.9 mph 4 mph 93% 0.02 in 0 W/m2
03:16 51.4 °F 49.5 °F 29.5 in North 0.9 mph 2 mph 93% 0.02 in 0 W/m2
03:21 51.3 °F 49.3 °F 29.5 in NW 0.9 mph 7 mph 93% 0.02 in 0 W/m2
03:26 51.4 °F 49.5 °F 29.5 in WNW 0.9 mph 3 mph 93% 0.02 in 0 W/m2
03:31 51.4 °F 49.5 °F 29.5 in NW 0.9 mph 3 mph 93% 0.01 in 0 W/m2
03:36 51.3 °F 49.3 °F 29.5 in NNW 0.9 mph 6 mph 93% 0.01 in 0 W/m2
03:41 51.3 °F 49.3 °F 29.5 in SW 0.9 mph 2 mph 93% 0.01 in 0 W/m2
03:46 51.3 °F 49.3 °F 29.5 in WSW 2 mph 4 mph 93% 0.01 in 0 W/m2
03:51 51.3 °F 49.3 °F 29.5 in West 2.9 mph 4 mph 93% 0.01 in 0 W/m2
03:56 51.3 °F 49.3 °F 29.5 in West 2 mph 3 mph 93% 0 in 0 W/m2
04:01 51.3 °F 49.3 °F 29.5 in Calm   2 mph 93% 0 in 0 W/m2
04:06 51.3 °F 49.3 °F 29.5 in North 2 mph 5 mph 93% 0 in 0 W/m2
04:11 51.1 °F 49.1 °F 29.5 in NW 2 mph 6 mph 93% 0 in 0 W/m2
04:16 51.1 °F 49.1 °F 29.5 in North 0.9 mph 3 mph 93% 0.01 in 0 W/m2
04:21 51.1 °F 49.1 °F 29.5 in NNE 0.9 mph 2 mph 93% 0.01 in 0 W/m2
04:26 51.1 °F 49.1 °F 29.5 in Calm   1 mph 93% 0.01 in 0 W/m2
04:31 51.1 °F 49.1 °F 29.5 in West 0.9 mph 1 mph 93% 0.01 in 0 W/m2
04:36 50.9 °F 48.9 °F 29.5 in NE 0.9 mph 3 mph 93% 0.01 in 0 W/m2
04:41 50.9 °F 48.9 °F 29.5 in SE 0.9 mph 5 mph 93% 0.01 in 0 W/m2
04:46 50.9 °F 48.9 °F 29.5 in NNW 0.9 mph 2 mph 93% 0.01 in 0 W/m2
04:51 50.9 °F 48.9 °F 29.5 in NW 2 mph 3 mph 93% 0.01 in 0 W/m2
04:56 50.9 °F 48.9 °F 29.5 in North 0.9 mph 4 mph 93% 0.01 in 0 W/m2
05:01 50.9 °F 48.9 °F 29.6 in Calm     93% 0.01 in 0 W/m2
05:06 50.9 °F 48.9 °F 29.6 in NNW 2 mph 2 mph 93% 0.02 in 0 W/m2
05:11 50.9 °F 48.9 °F 29.6 in WNW 2 mph 4 mph 93% 0.02 in 0 W/m2
05:16 51.1 °F 49.1 °F 29.6 in WNW 0.9 mph 3 mph 93% 0.01 in 0 W/m2
05:21 50.9 °F 48.9 °F 29.5 in WNW 0.9 mph 5 mph 93% 0.01 in 0 W/m2
05:26 50.9 °F 48.9 °F 29.5 in WNW 0.9 mph 1 mph 93% 0.02 in 0 W/m2
05:31 50.7 °F 48.7 °F 29.5 in Calm   1 mph 93% 0.02 in 0 W/m2
05:36 50.7 °F 48.7 °F 29.6 in Calm     93% 0.02 in 0 W/m2
05:41 50.7 °F 48.7 °F 29.6 in North 0.9 mph 2 mph 93% 0.02 in 0 W/m2
05:46 50.5 °F 48.6 °F 29.6 in Calm   2 mph 93% 0.02 in 0 W/m2
05:51 50.5 °F 48.6 °F 29.6 in West 0.9 mph 2 mph 93% 0.03 in 0 W/m2
05:56 50.5 °F 48.6 °F 29.6 in Calm   1 mph 93% 0.04 in 0 W/m2
06:01 50.5 °F 48.9 °F 29.6 in Calm   1 mph 94% 0.04 in 7 W/m2
06:06 50.5 °F 48.9 °F 29.6 in NNE 0.9 mph 3 mph 94% 0.03 in 7 W/m2
06:11 50.5 °F 48.9 °F 29.6 in East 2.9 mph 3 mph 94% 0.03 in 25 W/m2
06:16 50.5 °F 48.6 °F 29.6 in WNW 2.9 mph 4 mph 93% 0.04 in 9 W/m2
06:21 50.5 °F 48.6 °F 29.6 in East 0.9 mph 2 mph 93% 0.04 in 12 W/m2
06:26 50.5 °F 48.6 °F 29.6 in Calm   5 mph 93% 0.03 in 18 W/m2
06:31 50.5 °F 48.6 °F 29.6 in NW 2 mph 3 mph 93% 0.03 in 12 W/m2
06:36 50.5 °F 48.6 °F 29.6 in NE 0.9 mph 3 mph 93% 0.03 in 16 W/m2
06:41 50.5 °F 48.6 °F 29.6 in SW 2 mph 5 mph 93% 0.04 in 19 W/m2
06:46 50.5 °F 48.6 °F 29.6 in West 6 mph 6 mph 93% 0.04 in 30 W/m2
06:51 50.5 °F 48.6 °F 29.6 in NW 2 mph 4 mph 93% 0.02 in 26 W/m2
06:56 50.5 °F 48.6 °F 29.6 in Calm   6 mph 93% 0.02 in 26 W/m2
07:01 50.5 °F 48.6 °F 29.6 in WNW 2 mph 6 mph 93% 0.02 in 47 W/m2
07:06 50.5 °F 48.6 °F 29.6 in SW 2 mph 5 mph 93% 0.02 in 37 W/m2
07:11 50.5 °F 48.6 °F 29.6 in North 0.9 mph 4 mph 93% 0.02 in 30 W/m2
07:16 50.5 °F 48.6 °F 29.6 in Calm   5 mph 93% 0.01 in 40 W/m2
07:21 50.5 °F 48.6 °F 29.6 in NNW 0.9 mph 2 mph 93% 0.01 in 25 W/m2
07:26 50.5 °F 48.6 °F 29.6 in Calm   5 mph 93% 0.01 in 63 W/m2
07:31 50.5 °F 48.6 °F 29.6 in NE 0.9 mph 4 mph 93% 0.01 in 47 W/m2
07:36 50.5 °F 48.6 °F 29.6 in NNW 2 mph 2 mph 93% 0.01 in 32 W/m2
07:41 50.7 °F 48.7 °F 29.6 in Calm   2 mph 93% 0 in 32 W/m2
07:46 50.7 °F 48.7 °F 29.6 in Calm   3 mph 93% 0 in 62 W/m2
07:52 50.7 °F 48.7 °F 29.6 in East 0.9 mph 2 mph 93% 0 in 79 W/m2
07:57 50.9 °F 48.9 °F 29.6 in NNE 0.9 mph 1 mph 93% 0 in 77 W/m2
08:02 51.1 °F 49.1 °F 29.6 in NW 2.9 mph 4 mph 93% 0 in 77 W/m2
08:07 51.1 °F 49.1 °F 29.6 in WNW 2.9 mph 6 mph 93% 0 in 139 W/m2
08:12 51.3 °F 49.3 °F 29.6 in Calm   3 mph 93% 0 in 76 W/m2
08:17 51.4 °F 49.5 °F 29.6 in North 2.9 mph 3 mph 93% 0 in 104 W/m2
08:22 51.4 °F 49.3 °F 29.6 in NW 2 mph 5 mph 92% 0 in 104 W/m2
08:27 51.6 °F 49.5 °F 29.6 in NNW 2 mph 2 mph 92% 0 in 77 W/m2
08:32 51.6 °F 49.5 °F 29.6 in Calm   5 mph 92% 0 in 195 W/m2
08:37 52 °F 49.6 °F 29.6 in NNW 2 mph 4 mph 92% 0 in 192 W/m2
08:42 52 °F 49.6 °F 29.6 in NE 2 mph 7 mph 92% 0 in 207 W/m2
08:47 52.3 °F 50 °F 29.6 in NNW 0.9 mph 2 mph 92% 0 in 188 W/m2
08:52 52.7 °F 50.4 °F 29.6 in NW 4 mph 5 mph 92% 0 in 225 W/m2
08:57 52.9 °F 50.4 °F 29.6 in North 4 mph 4 mph 91% 0 in 167 W/m2
09:02 53.1 °F 50.5 °F 29.6 in SSE 4 mph 7 mph 91% 0 in 236 W/m2
09:07 53.1 °F 50.5 °F 29.6 in North 2.9 mph 4 mph 91% 0 in 137 W/m2
09:12 53.1 °F 50.2 °F 29.6 in ESE 0.9 mph 3 mph 90% 0 in 185 W/m2
09:17 53.1 °F 50.2 °F 29.6 in NE 0.9 mph 3 mph 90% 0 in 185 W/m2
09:22 53.1 °F 50.2 °F 29.6 in NW 2 mph 3 mph 90% 0 in 125 W/m2
09:27 53.1 °F 50.2 °F 29.6 in East 2 mph 4 mph 90% 0 in 142 W/m2
09:32 53.2 °F 50.4 °F 29.6 in NNW 8.1 mph 9 mph 90% 0 in 250 W/m2
09:37 53.2 °F 50.4 °F 29.6 in WSW 4 mph 5 mph 90% 0 in 216 W/m2
09:42 53.8 °F 50.9 °F 29.6 in NNW 4 mph 4 mph 90% 0 in 267 W/m2
09:47 54 °F 50.7 °F 29.6 in NNE 2 mph 3 mph 89% 0 in 288 W/m2
09:53 54.3 °F 50.9 °F 29.6 in NW 2 mph 3 mph 88% 0 in 183 W/m2
09:58 54.3 °F 50.9 °F 29.6 in Calm   5 mph 88% 0 in 218 W/m2
10:03 54.3 °F 50.9 °F 29.6 in NNW 2.9 mph 3 mph 88% 0 in 301 W/m2
10:08 54.3 °F 50.9 °F 29.6 in West 6.9 mph 7 mph 88% 0 in 211 W/m2
10:13 54.3 °F 50.5 °F 29.6 in SW 6 mph 7 mph 87% 0 in 223 W/m2
10:18 54.1 °F 50.7 °F 29.6 in WNW 0.9 mph 7 mph 88% 0 in 338 W/m2
10:23 54.1 °F 50.4 °F 29.6 in North 0.9 mph 3 mph 87% 0 in 251 W/m2
10:28 54.1 °F 50.4 °F 29.6 in West 12.1 mph 12 mph 87% 0 in 253 W/m2
10:33 54.5 °F 50.7 °F 29.6 in NW 0.9 mph 4 mph 87% 0 in 710 W/m2
10:38 55.2 °F 51.8 °F 29.6 in North 2 mph 8 mph 88% 0 in 898 W/m2
10:43 55.9 °F 51.8 °F 29.6 in NW 4 mph 8 mph 86% 0 in 965 W/m2
10:48 56.5 °F 52 °F 29.6 in WNW 4 mph 11 mph 85% 0 in 708 W/m2
10:54 56.5 °F 51.1 °F 29.6 in NNW 4 mph 8 mph 82% 0 in 292 W/m2
10:59 56.3 °F 51.3 °F 29.6 in WSW 0.9 mph 4 mph 83% 0 in 279 W/m2
11:04 56.5 °F 51.4 °F 29.6 in NNE 0.9 mph 10 mph 83% 0 in 343 W/m2
11:09 56.5 °F 50.7 °F 29.6 in WNW 4 mph 9 mph 81% 0 in 274 W/m2
11:14 56.7 °F 50.5 °F 29.6 in SW 2.9 mph 10 mph 80% 0 in 323 W/m2
11:19 57 °F 50.9 °F 29.6 in East 4 mph 12 mph 80% 0 in 940 W/m2
11:24 57.6 °F 50.7 °F 29.6 in SSE 2 mph 8 mph 78% 0 in 302 W/m2
11:29 57.6 °F 50.4 °F 29.6 in NW 2.9 mph 8 mph 77% 0 in 320 W/m2
11:34 57.7 °F 50.5 °F 29.6 in East 2.9 mph 7 mph 77% 0.01 in 329 W/m2
11:39 58.1 °F 50.9 °F 29.6 in NW 4 mph 7 mph 77% 0.01 in 610 W/m2
11:44 58.3 °F 50.4 °F 29.6 in West 6 mph 10 mph 75% 0.01 in 404 W/m2
11:49 58.6 °F 50 °F 29.6 in NNW 8.1 mph 14 mph 73% 0.01 in 478 W/m2
11:54 57.6 °F 50 °F 29.6 in West 12.1 mph 16 mph 76% 0.02 in 79 W/m2
11:59 54 °F 48.6 °F 29.6 in WNW 4.9 mph 12 mph 82% 0.04 in 204 W/m2
12:05 52.5 °F 48.4 °F 29.6 in SW 8.1 mph 15 mph 86% 0.04 in 169 W/m2
12:10 52 °F 48.2 °F 29.6 in NW 4 mph 11 mph 87% 0.04 in 260 W/m2
12:15 51.8 °F 48.4 °F 29.6 in WSW 4 mph 10 mph 88% 0.04 in 301 W/m2
12:20 52 °F 48.9 °F 29.6 in WNW 4 mph 7 mph 89% 0.04 in 418 W/m2
12:25 52.3 °F 49.5 °F 29.6 in NNW 6 mph 7 mph 90% 0.04 in 512 W/m2
12:30 53.2 °F 50.4 °F 29.6 in WNW 6.9 mph 9 mph 90% 0.04 in 884 W/m2
12:35 54.1 °F 50.4 °F 29.6 in WNW 4.9 mph 6 mph 87% 0.03 in 747 W/m2
12:40 54.9 °F 50.4 °F 29.6 in SW 2 mph 13 mph 85% 0.03 in 1093 W/m2
12:45 55.6 °F 51.1 °F 29.6 in West 6.9 mph 10 mph 85% 0.03 in 976 W/m2
12:50 56.3 °F 50.9 °F 29.6 in WNW 8.9 mph 11 mph 82% 0.03 in 881 W/m2
12:55 56.8 °F 51.8 °F 29.6 in West 11 mph 14 mph 83% 0.02 in 905 W/m2
13:00 57.4 °F 50.9 °F 29.6 in SW 4 mph 14 mph 79% 0 in 946 W/m2
13:05 57.7 °F 51.6 °F 29.6 in West 6 mph 9 mph 80% 0 in 1048 W/m2
13:10 58.3 °F 51.4 °F 29.6 in SSE 4.9 mph 6 mph 78% 0 in 1000 W/m2
13:15 58.8 °F 52 °F 29.6 in SSW 2 mph 12 mph 78% 0 in 1053 W/m2
13:20 58.6 °F 50.7 °F 29.6 in NNW 2 mph 5 mph 75% 0 in 202 W/m2
13:25 58.5 °F 50.5 °F 29.6 in West 4 mph 9 mph 75% 0 in 251 W/m2
13:30 57.9 °F 50 °F 29.6 in SW 6 mph 9 mph 75% 0 in 195 W/m2
13:35 58.6 °F 51.1 °F 29.6 in WNW 2.9 mph 8 mph 76% 0 in 974 W/m2
13:40 59.5 °F 50.9 °F 29.6 in West 2.9 mph 8 mph 73% 0 in 1056 W/m2
13:45 59.4 °F 49.1 °F 29.6 in West 10.1 mph 19 mph 69% 0 in 220 W/m2
13:50 57 °F 47.7 °F 29.6 in NW 6.9 mph 12 mph 71% 0 in 230 W/m2
13:55 55.9 °F 47.5 °F 29.6 in WNW 8.1 mph 10 mph 73% 0 in 200 W/m2
14:00 55.4 °F 47.3 °F 29.6 in West 2.9 mph 7 mph 74% 0 in 220 W/m2
14:05 55.8 °F 48.4 °F 29.6 in West 6.9 mph 9 mph 76% 0 in 1014 W/m2
14:10 56.7 °F 48.4 °F 29.6 in WSW 6.9 mph 10 mph 74% 0 in 350 W/m2
14:15 57.7 °F 49.1 °F 29.6 in West 8.1 mph 10 mph 73% 0 in 916 W/m2
14:21 58.6 °F 49.6 °F 29.6 in West 6.9 mph 8 mph 72% 0 in 916 W/m2
14:26 59.2 °F 49.5 °F 29.6 in West 4 mph 10 mph 70% 0 in 923 W/m2
14:31 59.5 °F 49.3 °F 29.6 in WSW 8.1 mph 11 mph 69% 0 in 1002 W/m2
14:36 59.2 °F 48.6 °F 29.6 in West 8.1 mph 12 mph 68% 0 in 1002 W/m2
14:41 58.8 °F 48.2 °F 29.6 in WNW 6.9 mph 9 mph 68% 0 in 292 W/m2
14:46 58.6 °F 47.3 °F 29.6 in North 10.1 mph 15 mph 66% 0 in 343 W/m2
14:51 58.8 °F 47.8 °F 29.6 in SSW 2.9 mph 9 mph 67% 0 in 911 W/m2
Juneau County Weather
Compliments of Weather Underground - 2 mb